Time;durP1;ratioP1;P1;durP2;ratioP2;P2;SDS_P1;SDS_P2;PMS_P1;PMS_P2;Temp;Humidity;BMP_temperature;BMP_pressure;BME280_temperature;BME280_humidity;BME280_pressure;Samples;Min_cycle;Max_cycle;Signal;HPM_P1;HPM_P2
2023/04/01 00:00:55;;;;;;;4.68;1.80;;;16.40;94.10;;;;;;5073349;28;20040;-64
2023/04/01 00:03:21;;;;;;;3.10;1.92;;;16.50;94.30;;;;;;5075098;28;20052;-61
2023/04/01 00:05:48;;;;;;;3.97;2.10;;;;;;;;;;5074853;28;20055;-65
2023/04/01 00:08:13;;;;;;;4.95;2.40;;;16.50;94.60;;;;;;5073966;28;20106;-65
2023/04/01 00:10:39;;;;;;;4.32;2.30;;;16.50;94.70;;;;;;5075137;28;20044;-65
2023/04/01 00:13:05;;;;;;;5.32;2.28;;;;;;;;;;5073621;28;20497;-65
2023/04/01 00:15:31;;;;;;;3.53;2.05;;;16.40;94.70;;;;;;5073625;28;20052;-66
2023/04/01 00:17:57;;;;;;;4.55;2.30;;;16.40;94.70;;;;;;5072746;28;20067;-65
2023/04/01 00:20:23;;;;;;;3.83;2.40;;;16.40;94.70;;;;;;5075063;28;20044;-66
2023/04/01 00:22:48;;;;;;;3.95;2.38;;;16.50;94.80;;;;;;5074843;28;20111;-63
2023/04/01 00:25:14;;;;;;;6.63;2.70;;;16.30;94.70;;;;;;5074878;28;20363;-65
2023/04/01 00:27:40;;;;;;;4.65;2.22;;;16.50;94.70;;;;;;5074949;28;20780;-65
2023/04/01 00:30:07;;;;;;;5.82;2.83;;;16.40;93.00;;;;;;5074875;28;20048;-62
2023/04/01 00:32:33;;;;;;;4.22;2.33;;;16.50;94.70;;;;;;5074814;28;20426;-65
2023/04/01 00:35:00;;;;;;;5.15;2.50;;;;;;;;;;5073657;28;20052;-65
2023/04/01 00:37:26;;;;;;;4.97;2.50;;;16.50;94.40;;;;;;5073179;28;20048;-65
2023/04/01 00:39:52;;;;;;;4.03;2.30;;;16.40;93.60;;;;;;5073295;28;20080;-65
2023/04/01 00:42:19;;;;;;;4.30;2.47;;;;;;;;;;5074664;28;20126;-61
2023/04/01 00:44:51;;;;;;;3.45;2.25;;;;;;;;;;5072682;28;20087;-65
2023/04/01 00:47:17;;;;;;;6.22;2.67;;;16.40;94.30;;;;;;5074231;28;20055;-63
2023/04/01 00:49:48;;;;;;;4.63;2.40;;;16.40;93.40;;;;;;5073262;28;20045;-60
2023/04/01 00:52:16;;;;;;;4.50;2.70;;;16.50;94.70;;;;;;5031784;28;20052;-61
2023/04/01 00:54:44;;;;;;;6.55;2.67;;;16.50;93.40;;;;;;5056427;28;20456;-64
2023/04/01 00:57:30;;;;;;;4.38;2.42;;;16.30;94.70;;;;;;5039746;28;20055;-64
2023/04/01 00:59:55;;;;;;;4.97;2.58;;;16.40;94.00;;;;;;5073731;28;20129;-62
2023/04/01 01:02:21;;;;;;;4.63;2.75;;;16.70;94.80;;;;;;5072761;28;20458;-65
2023/04/01 01:04:47;;;;;;;3.53;2.38;;;;;;;;;;5074201;28;20048;-65
2023/04/01 01:08:08;;;;;;;4.38;2.53;;;16.20;93.50;;;;;;5055104;28;20114;-65
2023/04/01 01:10:35;;;;;;;4.88;2.70;;;;;;;;;;5059776;28;20482;-62
2023/04/01 01:13:10;;;;;;;5.47;2.40;;;16.40;92.80;;;;;;5038378;28;20056;-63
2023/04/01 01:15:45;;;;;;;4.03;2.35;;;16.50;94.80;;;;;;5054809;28;20091;-65
2023/04/01 01:18:17;;;;;;;5.60;2.67;;;16.60;92.80;;;;;;5055361;28;20060;-63
2023/04/01 01:21:04;;;;;;;4.38;2.75;;;16.40;92.70;;;;;;5071439;28;20048;-65
2023/04/01 01:23:34;;;;;;;5.20;2.60;;;16.50;93.40;;;;;;5071305;28;20418;-64
2023/04/01 01:26:29;;;;;;;5.13;3.10;;;16.40;93.60;;;;;;5054405;28;20131;-65
2023/04/01 01:28:55;;;;;;;4.55;2.60;;;16.40;94.70;;;;;;5011429;28;20053;-60
2023/04/01 01:31:23;;;;;;;4.95;2.50;;;;;;;;;;5011536;28;20100;-65
2023/04/01 01:34:10;;;;;;;5.13;2.80;;;16.20;94.60;;;;;;4995277;28;20058;-64
2023/04/01 01:36:37;;;;;;;4.90;2.60;;;;;;;;;;5011663;28;20042;-62
2023/04/01 01:39:06;;;;;;;5.88;2.85;;;16.70;94.80;;;;;;4995094;28;20108;-65
2023/04/01 01:41:32;;;;;;;5.72;3.05;;;;;;;;;;4994869;28;20053;-63
2023/04/01 01:43:58;;;;;;;4.63;2.80;;;;;;;;;;4994832;28;20058;-62
2023/04/01 01:46:24;;;;;;;4.88;3.00;;;16.40;94.50;;;;;;5011157;28;20058;-64
2023/04/01 01:48:51;;;;;;;5.35;3.00;;;;;;;;;;4994865;28;20120;-64
2023/04/01 01:51:17;;;;;;;5.25;3.28;;;16.60;93.60;;;;;;4994842;28;20165;-62
2023/04/01 01:53:43;;;;;;;4.35;2.83;;;;;;;;;;5011201;28;20490;-63
2023/04/01 01:56:12;;;;;;;5.55;2.80;;;16.50;93.50;;;;;;5010675;28;20046;-63
2023/04/01 01:58:46;;;;;;;6.78;2.90;;;16.40;94.70;;;;;;5009851;28;20471;-65
2023/04/01 02:01:17;;;;;;;5.90;3.17;;;16.30;93.40;;;;;;5011024;28;20042;-62
2023/04/01 02:03:43;;;;;;;5.07;3.00;;;16.30;94.70;;;;;;5010990;28;20042;-61
2023/04/01 02:06:10;;;;;;;5.03;2.88;;;16.40;93.30;;;;;;5062239;28;20057;-65
2023/04/01 02:08:47;;;;;;;4.70;2.78;;;16.30;92.80;;;;;;5071624;28;20106;-63
2023/04/01 02:11:14;;;;;;;4.97;2.90;;;16.40;94.70;;;;;;5055261;28;20048;-65
2023/04/01 02:13:44;;;;;;;6.35;2.75;;;16.30;93.30;;;;;;5055097;28;20070;-65
2023/04/01 02:16:34;;;;;;;6.05;3.00;;;16.30;92.90;;;;;;5054145;28;20052;-60
2023/04/01 02:19:00;;;;;;;5.15;3.13;;;16.30;93.30;;;;;;5071369;28;20048;-63
2023/04/01 02:21:28;;;;;;;6.35;3.42;;;16.30;93.50;;;;;;5054743;28;20106;-64
2023/04/01 02:23:54;;;;;;;5.32;3.13;;;;;;;;;;5071526;28;20461;-63
2023/04/01 02:26:19;;;;;;;4.63;2.78;;;16.40;94.80;;;;;;5071487;28;20075;-62
2023/04/01 02:28:46;;;;;;;4.78;3.10;;;;;;;;;;5071555;28;20068;-65
2023/04/01 02:31:12;;;;;;;5.10;2.80;;;;;;;;;;5071221;28;20060;-64
2023/04/01 02:33:38;;;;;;;5.45;3.13;;;;;;;;;;5070652;28;20040;-65
2023/04/01 02:36:05;;;;;;;5.63;3.00;;;;;;;;;;5071095;28;20048;-65
2023/04/01 02:38:30;;;;;;;5.53;3.22;;;16.20;94.00;;;;;;5071451;28;20421;-65
2023/04/01 02:40:58;;;;;;;4.90;3.08;;;16.40;93.40;;;;;;5070997;28;20049;-66
2023/04/01 02:43:24;;;;;;;5.40;2.95;;;;;;;;;;5071239;28;20060;-64
2023/04/01 02:45:50;;;;;;;5.18;3.17;;;;;;;;;;5071274;28;20437;-64
2023/04/01 02:48:16;;;;;;;4.85;2.95;;;;;;;;;;5072153;28;20072;-65
2023/04/01 02:50:43;;;;;;;6.85;3.28;;;;;;;;;;5064254;28;20052;-63
2023/04/01 02:53:09;;;;;;;6.43;3.60;;;;;;;;;;5072410;28;20060;-65
2023/04/01 02:55:35;;;;;;;5.43;3.40;;;;;;;;;;5072477;28;20080;-64
2023/04/01 02:58:01;;;;;;;5.50;3.22;;;16.10;93.80;;;;;;5072219;28;20059;-62
2023/04/01 03:00:27;;;;;;;5.60;3.63;;;16.40;94.10;;;;;;5072139;28;20040;-62
2023/04/01 03:02:53;;;;;;;4.93;2.72;;;;;;;;;;5072119;28;20106;-62
2023/04/01 03:05:19;;;;;;;6.28;3.17;;;16.10;94.20;;;;;;5071179;28;20102;-60
2023/04/01 03:07:45;;;;;;;5.60;3.10;;;16.50;94.90;;;;;;5071978;28;20080;-65
2023/04/01 03:10:11;;;;;;;5.10;3.20;;;;;;;;;;5076265;28;20079;-64
2023/04/01 03:12:37;;;;;;;7.20;3.40;;;16.40;94.10;;;;;;5074820;28;20051;-62
2023/04/01 03:15:03;;;;;;;5.20;3.17;;;16.60;93.00;;;;;;5074701;28;20052;-60
2023/04/01 03:17:29;;;;;;;4.50;3.08;;;16.40;93.80;;;;;;5076355;28;20044;-62
2023/04/01 03:19:55;;;;;;;4.63;3.00;;;;;;;;;;5076000;28;20371;-63
2023/04/01 03:22:21;;;;;;;5.88;3.42;;;16.40;93.30;;;;;;5076144;28;20393;-61
2023/04/01 03:24:49;;;;;;;4.43;2.83;;;16.40;92.90;;;;;;5075205;28;20036;-65
2023/04/01 03:27:15;;;;;;;5.63;3.15;;;;;;;;;;5076074;28;20170;-62
2023/04/01 03:29:41;;;;;;;4.85;3.22;;;;;;;;;;5075711;28;20537;-64
2023/04/01 03:32:07;;;;;;;5.40;3.40;;;16.30;94.70;;;;;;5075923;28;20055;-61
2023/04/01 03:34:33;;;;;;;4.70;2.97;;;;;;;;;;5075589;28;20048;-60
2023/04/01 03:36:59;;;;;;;6.07;3.60;;;16.40;94.80;;;;;;5074331;28;20049;-65
2023/04/01 03:39:26;;;;;;;5.30;3.47;;;;;;;;;;5075495;28;20409;-61
2023/04/01 03:41:51;;;;;;;6.75;3.65;;;16.30;93.90;;;;;;5074879;28;20041;-61
2023/04/01 03:44:17;;;;;;;6.97;3.85;;;16.20;94.70;;;;;;5074183;28;20044;-63
2023/04/01 03:46:43;;;;;;;5.32;3.60;;;;;;;;;;5075343;28;20053;-63
2023/04/01 03:49:11;;;;;;;7.95;3.25;;;;;;;;;;5075230;28;20056;-62
2023/04/01 03:51:43;;;;;;;6.28;3.88;;;16.30;92.70;;;;;;5073947;28;20056;-62
2023/04/01 03:54:10;;;;;;;4.90;3.40;;;16.00;94.70;;;;;;5074042;28;20087;-64
2023/04/01 03:56:36;;;;;;;5.22;3.72;;;;;;;;;;5075522;28;20076;-63
2023/04/01 03:59:03;;;;;;;5.13;3.70;;;16.40;93.40;;;;;;5074645;28;20457;-63
2023/04/01 04:01:29;;;;;;;7.20;4.30;;;;;;;;;;5075439;28;20123;-65
2023/04/01 04:03:56;;;;;;;5.93;4.18;;;16.40;94.80;;;;;;5073512;28;20044;-64
2023/04/01 04:06:22;;;;;;;5.78;3.95;;;16.40;94.80;;;;;;5074995;28;20067;-61
2023/04/01 04:08:48;;;;;;;6.47;4.20;;;16.40;94.80;;;;;;5075381;28;20383;-66
2023/04/01 04:11:14;;;;;;;5.75;3.70;;;16.30;94.70;;;;;;5075153;28;20128;-62
2023/04/01 04:13:40;;;;;;;5.93;3.72;;;16.30;94.80;;;;;;5074950;28;20502;-66
2023/04/01 04:16:06;;;;;;;5.93;3.80;;;;;;;;;;5058523;28;20053;-64
2023/04/01 04:18:32;;;;;;;6.57;3.80;;;;;;;;;;5055170;28;20375;-62
2023/04/01 04:20:58;;;;;;;5.57;3.97;;;16.50;94.80;;;;;;5054372;28;20126;-64
2023/04/01 04:23:23;;;;;;;7.10;4.40;;;16.30;93.60;;;;;;5053605;28;20100;-60
2023/04/01 04:26:06;;;;;;;5.93;4.13;;;16.30;92.80;;;;;;5053695;28;20045;-63
2023/04/01 04:28:32;;;;;;;5.65;4.15;;;16.40;93.20;;;;;;5054973;28;20045;-61
2023/04/01 04:30:58;;;;;;;5.75;4.35;;;16.00;94.70;;;;;;5054920;28;20463;-60
2023/04/01 04:33:24;;;;;;;6.20;4.60;;;16.30;94.80;;;;;;5055099;28;20053;-62
2023/04/01 04:35:50;;;;;;;5.80;4.22;;;16.00;94.80;;;;;;5053353;28;20543;-65
2023/04/01 04:38:15;;;;;;;6.53;4.25;;;16.30;94.90;;;;;;5053449;28;20120;-65
2023/04/01 04:40:42;;;;;;;6.80;4.38;;;16.60;94.80;;;;;;5054581;28;20041;-61
2023/04/01 04:43:11;;;;;;;5.43;3.85;;;16.40;93.50;;;;;;5054766;28;20453;-64
2023/04/01 04:45:37;;;;;;;5.60;4.20;;;16.20;94.80;;;;;;5053051;28;20049;-60
2023/04/01 04:48:03;;;;;;;6.10;4.30;;;;;;;;;;5053147;28;20064;-63
2023/04/01 04:50:29;;;;;;;6.72;4.53;;;16.20;94.60;;;;;;5066436;28;20051;-65
2023/04/01 04:52:54;;;;;;;6.05;3.90;;;16.60;93.80;;;;;;5074476;28;20037;-65
2023/04/01 04:55:21;;;;;;;6.53;4.63;;;;;;;;;;5074431;28;20531;-63
2023/04/01 04:57:46;;;;;;;6.88;4.20;;;16.40;94.80;;;;;;5074022;28;20055;-65
2023/04/01 05:00:12;;;;;;;6.43;4.40;;;16.40;94.90;;;;;;5074419;28;20044;-59
2023/04/01 05:02:39;;;;;;;5.40;4.03;;;;;;;;;;5073991;28;20088;-63
2023/04/01 05:05:05;;;;;;;5.40;4.15;;;16.40;94.90;;;;;;5074210;28;20397;-65
2023/04/01 05:07:31;;;;;;;7.57;4.13;;;16.10;94.80;;;;;;5054678;28;20473;-64
2023/04/01 05:09:57;;;;;;;6.93;4.22;;;16.30;94.80;;;;;;5052447;28;20044;-65
2023/04/01 05:12:23;;;;;;;5.90;4.00;;;16.40;94.40;;;;;;5052604;28;20444;-62
2023/04/01 05:14:49;;;;;;;7.38;4.90;;;;;;;;;;5054055;28;20040;-64
2023/04/01 05:17:15;;;;;;;6.57;4.28;;;16.30;94.80;;;;;;5053658;28;20131;-61
2023/04/01 05:19:41;;;;;;;6.88;4.80;;;16.10;93.30;;;;;;5053997;28;20128;-63
2023/04/01 05:22:07;;;;;;;6.85;4.40;;;;;;;;;;5053658;28;20460;-66
2023/04/01 05:24:33;;;;;;;7.20;5.18;;;16.30;94.80;;;;;;5071694;28;20494;-61
2023/04/01 05:26:59;;;;;;;6.88;5.20;;;16.40;93.00;;;;;;5073733;28;20052;-65
2023/04/01 05:29:25;;;;;;;6.85;5.03;;;;;;;;;;5073365;28;20466;-64
2023/04/01 05:31:51;;;;;;;6.57;4.93;;;16.40;94.80;;;;;;5072397;28;20051;-61
2023/04/01 05:34:17;;;;;;;7.00;5.38;;;16.40;94.90;;;;;;5073350;28;20040;-64
2023/04/01 05:36:43;;;;;;;6.75;4.97;;;;;;;;;;5073607;28;20088;-63
2023/04/01 05:39:09;;;;;;;7.30;5.60;;;;;;;;;;5073077;28;20123;-60
2023/04/01 05:41:36;;;;;;;6.10;4.57;;;;;;;;;;5073183;28;20059;-62
2023/04/01 05:44:02;;;;;;;7.53;5.18;;;;;;;;;;5073126;28;20091;-64
2023/04/01 05:46:28;;;;;;;8.48;5.43;;;16.50;93.50;;;;;;5071734;28;20052;-61
2023/04/01 05:48:54;;;;;;;7.22;5.10;;;16.40;94.80;;;;;;5071554;28;20053;-66
2023/04/01 05:51:20;;;;;;;7.50;5.63;;;16.20;94.80;;;;;;5073359;28;20044;-65
2023/04/01 05:53:46;;;;;;;8.13;5.78;;;16.50;94.20;;;;;;5073201;28;20505;-62
2023/04/01 05:56:12;;;;;;;7.22;5.55;;;16.10;94.60;;;;;;5072166;28;20506;-61
2023/04/01 05:58:39;;;;;;;9.05;5.97;;;;;;;;;;5071676;28;20051;-64
2023/04/01 06:01:06;;;;;;;7.88;6.20;;;16.20;93.40;;;;;;5071913;28;20076;-65
2023/04/01 06:03:32;;;;;;;7.97;5.90;;;16.40;94.80;;;;;;5072815;28;20087;-63
2023/04/01 06:05:58;;;;;;;7.28;5.45;;;16.40;93.60;;;;;;5071598;28;20076;-62
2023/04/01 06:08:25;;;;;;;8.45;6.40;;;;;;;;;;5073086;28;20040;-64
2023/04/01 06:11:20;;;;;;;8.02;5.93;;;16.40;94.90;;;;;;5072623;28;20088;-65
2023/04/01 06:14:07;;;;;;;7.57;5.82;;;16.60;93.00;;;;;;5066871;28;20088;-66
2023/04/01 06:16:42;;;;;;;8.60;6.35;;;16.50;94.30;;;;;;5054748;28;20529;-61
2023/04/01 06:19:38;;;;;;;9.23;6.20;;;16.60;93.10;;;;;;5072623;28;20040;-63
2023/04/01 06:22:22;;;;;;;8.48;6.15;;;16.50;94.90;;;;;;5071723;28;20455;-66
2023/04/01 06:25:12;;;;;;;8.15;6.20;;;16.50;92.80;;;;;;5071486;28;20048;-63
2023/04/01 06:28:04;;;;;;;8.27;6.18;;;16.50;93.00;;;;;;5072543;28;20051;-66
2023/04/01 06:30:42;;;;;;;9.50;7.20;;;16.20;92.90;;;;;;5056029;28;20059;-63
2023/04/01 06:33:14;;;;;;;7.70;5.53;;;16.40;92.80;;;;;;5072721;28;20429;-64
2023/04/01 06:35:50;;;;;;;9.90;7.03;;;;;;;;;;5072499;28;20059;-60
2023/04/01 06:38:41;;;;;;;8.02;6.30;;;16.50;93.10;;;;;;5071209;28;20060;-65
2023/04/01 06:41:13;;;;;;;9.15;6.30;;;16.60;94.90;;;;;;5072561;28;20078;-64
2023/04/01 06:43:57;;;;;;;8.98;6.90;;;16.50;93.10;;;;;;5070798;28;20052;-65
2023/04/01 06:46:48;;;;;;;9.38;6.28;;;16.30;93.10;;;;;;5072254;28;20091;-65
2023/04/01 06:49:28;;;;;;;9.80;7.45;;;;;;;;;;5062754;28;20052;-64
2023/04/01 06:52:14;;;;;;;7.93;6.40;;;16.60;93.80;;;;;;5072611;28;20052;-63
2023/04/01 06:54:49;;;;;;;9.15;6.53;;;16.40;94.00;;;;;;5068173;28;20048;-62
2023/04/01 06:57:35;;;;;;;8.70;6.78;;;16.50;93.00;;;;;;5072242;28;20055;-65
2023/04/01 07:00:03;;;;;;;9.57;7.22;;;16.50;94.20;;;;;;5071304;28;20429;-62
2023/04/01 07:02:29;;;;;;;8.27;6.30;;;;;;;;;;5072149;28;20084;-64
2023/04/01 07:04:56;;;;;;;9.77;7.03;;;;;;;;;;5071601;28;20048;-65
2023/04/01 07:07:27;;;;;;;9.63;6.85;;;16.50;94.80;;;;;;5071194;28;20037;-60
2023/04/01 07:09:54;;;;;;;10.40;7.28;;;16.50;94.80;;;;;;5070706;28;20041;-62
2023/04/01 07:12:26;;;;;;;10.50;8.05;;;16.40;94.50;;;;;;5072123;28;20123;-61
2023/04/01 07:14:52;;;;;;;9.53;7.13;;;;;;;;;;5071121;28;20052;-64
2023/04/01 07:17:22;;;;;;;8.52;6.60;;;16.50;94.90;;;;;;5072322;28;20367;-65
2023/04/01 07:19:59;;;;;;;9.45;6.57;;;16.70;94.50;;;;;;5071087;28;20178;-65
2023/04/01 07:22:44;;;;;;;9.25;7.13;;;16.40;93.00;;;;;;5044655;28;20052;-63
2023/04/01 07:25:15;;;;;;;10.23;7.55;;;16.80;93.90;;;;;;5050839;28;20102;-62
2023/04/01 07:27:42;;;;;;;8.43;6.50;;;16.80;94.80;;;;;;5050666;28;20060;-64
2023/04/01 07:30:18;;;;;;;10.50;7.20;;;16.80;93.50;;;;;;5051723;28;20044;-62
2023/04/01 07:33:02;;;;;;;9.43;7.43;;;16.70;92.90;;;;;;5052117;28;20045;-64
2023/04/01 07:35:30;;;;;;;9.43;6.88;;;17.00;94.70;;;;;;5051750;28;20077;-65
2023/04/01 07:38:25;;;;;;;9.93;7.43;;;16.80;93.50;;;;;;5050599;28;20410;-66
2023/04/01 07:41:23;;;;;;;10.38;7.80;;;16.90;92.60;;;;;;5035422;28;20124;-60
2023/04/01 07:44:01;;;;;;;10.65;7.82;;;16.80;94.60;;;;;;5050819;28;20517;-61
2023/04/01 07:46:38;;;;;;;8.65;6.53;;;;;;;;;;5051575;28;20052;-64
2023/04/01 07:49:04;;;;;;;9.20;6.45;;;;;;;;;;5066721;28;20433;-64
2023/04/01 07:51:45;;;;;;;8.93;6.75;;;16.70;92.70;;;;;;5071641;28;20052;-64
2023/04/01 07:54:20;;;;;;;8.10;6.38;;;16.80;92.60;;;;;;5070689;28;20106;-61
2023/04/01 07:56:54;;;;;;;8.82;6.50;;;16.60;92.50;;;;;;5056555;28;20126;-61
2023/04/01 07:59:54;;;;;;;10.32;6.95;;;16.90;92.70;;;;;;5075484;28;20560;-61
2023/04/01 08:02:38;;;;;;;9.05;6.35;;;17.00;92.70;;;;;;5073921;28;20056;-63
2023/04/01 08:05:18;;;;;;;8.45;5.97;;;16.90;94.50;;;;;;5075051;28;20078;-65
2023/04/01 08:08:02;;;;;;;8.70;6.32;;;17.00;92.60;;;;;;5075287;28;20044;-66
2023/04/01 08:10:28;;;;;;;9.07;6.57;;;16.60;94.40;;;;;;5075178;28;20068;-65
2023/04/01 08:13:52;;;;;;;8.18;6.05;;;17.10;93.00;;;;;;5074436;28;20083;-65
2023/04/01 08:16:26;;;;;;;8.70;5.88;;;17.00;93.10;;;;;;5030027;28;20053;-65
2023/04/01 08:19:50;;;;;;;9.32;6.15;;;18.40;93.60;;;;;;5053450;28;20053;-66
2023/04/01 08:22:22;;;;;;;7.38;5.75;;;17.10;94.40;;;;;;5031959;28;20061;-65
2023/04/01 08:24:48;;;;;;;8.10;6.10;;;17.00;92.90;;;;;;5035725;28;20604;-63
2023/04/01 08:27:16;;;;;;;7.88;5.45;;;17.10;93.10;;;;;;5052449;28;20045;-62
2023/04/01 08:30:02;;;;;;;9.18;5.93;;;17.10;94.30;;;;;;5052284;28;20041;-65
2023/04/01 08:32:36;;;;;;;7.40;5.55;;;16.80;92.20;;;;;;5038247;28;20076;-64
2023/04/01 08:35:27;;;;;;;7.53;5.63;;;17.20;93.10;;;;;;5052880;28;20072;-60
2023/04/01 08:37:53;;;;;;;7.30;5.25;;;;;;;;;;4998584;28;20119;-59
2023/04/01 08:41:08;;;;;;;7.35;5.25;;;17.20;93.20;;;;;;5052098;28;20529;-62
2023/04/01 08:43:53;;;;;;;8.15;5.35;;;17.00;92.20;;;;;;4957430;28;20137;-64
2023/04/01 08:46:40;;;;;;;6.97;5.00;;;17.10;92.90;;;;;;4956960;28;20504;-63
2023/04/01 08:49:36;;;;;;;6.53;4.68;;;17.20;93.10;;;;;;4973135;28;20070;-66
2023/04/01 08:52:10;;;;;;;6.50;4.38;;;17.20;92.20;;;;;;4971606;28;20137;-64
2023/04/01 08:55:04;;;;;;;6.85;4.55;;;17.20;93.00;;;;;;4976879;28;20137;-65
2023/04/01 08:57:39;;;;;;;5.50;3.78;;;17.10;92.90;;;;;;4962389;28;20444;-60
2023/04/01 09:00:10;;;;;;;6.00;3.63;;;17.30;94.10;;;;;;4992674;28;20057;-61
2023/04/01 09:02:50;;;;;;;4.93;2.90;;;17.10;94.10;;;;;;4976377;28;20046;-59
2023/04/01 09:05:53;;;;;;;4.65;2.70;;;16.80;92.20;;;;;;4992823;28;20389;-63
2023/04/01 09:08:36;;;;;;;4.47;2.67;;;16.80;92.20;;;;;;4992535;28;20085;-62
2023/04/01 09:11:13;;;;;;;4.45;2.28;;;17.00;92.10;;;;;;4992194;28;20054;-62
2023/04/01 09:13:49;;;;;;;4.75;2.60;;;16.80;92.80;;;;;;4976665;28;20585;-60
2023/04/01 09:16:41;;;;;;;4.32;2.20;;;;;;;;;;4979701;28;20061;-66
2023/04/01 09:19:15;;;;;;;3.83;1.90;;;16.70;93.50;;;;;;5051937;28;20057;-60
2023/04/01 09:21:52;;;;;;;3.67;2.10;;;16.60;92.10;;;;;;5053308;28;20426;-61
2023/04/01 09:24:36;;;;;;;3.95;1.83;;;16.30;93.90;;;;;;5053539;28;20490;-65
2023/04/01 09:27:24;;;;;;;4.03;1.80;;;16.80;94.00;;;;;;5053528;28;20053;-61
2023/04/01 09:30:02;;;;;;;3.97;1.70;;;;;;;;;;5052176;28;20079;-66
2023/04/01 09:32:37;;;;;;;2.25;1.40;;;;;;;;;;5053467;28;20122;-65
2023/04/01 09:35:11;;;;;;;2.72;1.65;;;16.80;94.00;;;;;;5053641;28;20083;-65
2023/04/01 09:37:49;;;;;;;3.08;1.30;;;;;;;;;;5052926;28;20055;-61
2023/04/01 09:40:24;;;;;;;3.10;1.65;;;16.60;92.10;;;;;;5053479;28;20116;-66
2023/04/01 09:43:25;;;;;;;2.00;1.33;;;16.70;92.00;;;;;;5053281;28;20049;-63
2023/04/01 09:46:23;;;;;;;3.03;1.33;;;16.60;92.70;;;;;;5053092;28;20088;-62
2023/04/01 09:49:02;;;;;;;2.45;1.40;;;16.50;92.70;;;;;;5052130;28;20410;-65
2023/04/01 09:51:31;;;;;;;2.80;1.17;;;16.60;92.00;;;;;;5051861;28;20052;-65
2023/04/01 09:53:57;;;;;;;1.83;1.20;;;;;;;;;;5053346;28;20040;-61
2023/04/01 09:56:47;;;;;;;2.47;1.20;;;16.40;91.90;;;;;;5053564;28;20144;-64
2023/04/01 09:59:34;;;;;;;2.40;1.27;;;16.60;91.90;;;;;;5052980;28;20106;-65
2023/04/01 10:02:41;;;;;;;2.10;1.00;;;16.70;92.00;;;;;;5053224;28;20045;-64
2023/04/01 10:05:32;;;;;;;2.03;1.38;;;16.50;92.70;;;;;;5030604;28;20608;-66
2023/04/01 10:08:10;;;;;;;2.33;0.98;;;16.50;92.60;;;;;;5010680;28;20050;-62
2023/04/01 10:10:42;;;;;;;1.55;0.98;;;16.40;91.70;;;;;;5009717;28;20049;-63
2023/04/01 10:13:20;;;;;;;3.83;1.00;;;16.50;92.70;;;;;;5027680;28;20065;-60
2023/04/01 10:16:23;;;;;;;2.40;1.13;;;16.40;92.00;;;;;;5030551;28;20419;-62
2023/04/01 10:19:07;;;;;;;1.27;0.82;;;16.40;92.00;;;;;;5030110;28;20495;-59
2023/04/01 10:21:35;;;;;;;1.80;0.93;;;16.70;91.90;;;;;;5014503;28;20509;-64
2023/04/01 10:24:30;;;;;;;1.75;1.00;;;;;;;;;;5030431;28;20049;-65
2023/04/01 10:27:07;;;;;;;2.00;0.95;;;;;;;;;;4932959;28;20076;-62
2023/04/01 10:29:39;;;;;;;1.63;1.00;;;;;;;;;;4933033;29;20140;-64
2023/04/01 10:32:30;;;;;;;1.50;1.00;;;16.60;92.60;;;;;;4933178;29;20183;-63
2023/04/01 10:35:28;;;;;;;1.90;1.10;;;16.40;92.80;;;;;;4933083;29;20055;-60
2023/04/01 10:38:02;;;;;;;1.88;1.02;;;16.60;91.70;;;;;;4933094;29;20094;-64
2023/04/01 10:40:30;;;;;;;1.40;0.85;;;16.70;93.10;;;;;;4934987;28;20044;-62
2023/04/01 10:43:23;;;;;;;3.17;0.90;;;16.40;91.80;;;;;;4955365;28;20062;-63
2023/04/01 10:46:19;;;;;;;1.02;0.90;;;16.50;91.70;;;;;;4971953;28;20071;-64
2023/04/01 10:49:02;;;;;;;2.08;0.88;;;16.80;91.70;;;;;;4971318;28;20076;-61
2023/04/01 10:52:10;;;;;;;1.52;0.90;;;16.90;92.10;;;;;;4971329;28;20161;-64
2023/04/01 10:54:44;;;;;;;1.92;1.00;;;16.60;93.50;;;;;;4941814;28;20378;-63
2023/04/01 10:57:40;;;;;;;1.13;1.00;;;16.60;91.60;;;;;;4955376;28;20128;-64
2023/04/01 11:00:28;;;;;;;1.23;0.75;;;16.20;93.40;;;;;;4955447;28;20054;-62
2023/04/01 11:03:09;;;;;;;1.85;1.08;;;16.80;92.20;;;;;;4983458;28;20044;-64
2023/04/01 11:05:54;;;;;;;1.63;0.80;;;16.60;91.60;;;;;;5071177;28;20387;-64
2023/04/01 11:08:27;;;;;;;2.53;1.20;;;;;;;;;;5072040;28;20521;-64
2023/04/01 11:11:21;;;;;;;1.60;1.00;;;16.80;91.30;;;;;;5071937;28;20514;-60
2023/04/01 11:14:03;;;;;;;3.15;1.02;;;16.60;93.30;;;;;;5072311;28;20116;-66
2023/04/01 11:16:48;;;;;;;3.15;1.10;;;16.60;93.30;;;;;;5071166;28;20371;-63
2023/04/01 11:19:36;;;;;;;2.03;1.05;;;16.60;91.50;;;;;;5071469;28;20052;-65
2023/04/01 11:22:10;;;;;;;1.85;1.00;;;16.80;93.20;;;;;;5070717;28;20498;-61
2023/04/01 11:24:37;;;;;;;2.40;0.88;;;;;;;;;;5071003;28;20052;-60
2023/04/01 11:27:03;;;;;;;1.65;1.08;;;;;;;;;;5070592;28;20091;-61
2023/04/01 11:29:34;;;;;;;2.28;0.90;;;16.70;91.20;;;;;;5072147;28;20045;-65
2023/04/01 11:32:25;;;;;;;1.63;1.02;;;16.60;91.30;;;;;;5075844;28;20468;-65
2023/04/01 11:35:27;;;;;;;1.05;0.80;;;16.70;91.90;;;;;;5076023;28;20047;-65
2023/04/01 11:37:56;;;;;;;1.30;1.00;;;16.70;91.00;;;;;;5035885;28;20049;-64
2023/04/01 11:40:43;;;;;;;1.17;0.80;;;17.00;91.20;;;;;;5053221;28;20056;-62
2023/04/01 11:43:35;;;;;;;1.15;0.90;;;17.00;91.00;;;;;;5036894;28;20076;-66
2023/04/01 11:46:17;;;;;;;1.83;1.00;;;16.80;91.00;;;;;;5055770;28;20044;-65
2023/04/01 11:48:52;;;;;;;1.10;0.90;;;16.80;90.90;;;;;;5069656;28;20044;-65
2023/04/01 11:51:36;;;;;;;1.50;1.00;;;17.00;90.90;;;;;;5052998;28;20045;-63
2023/04/01 11:54:23;;;;;;;2.67;1.42;;;16.90;90.80;;;;;;5045425;28;20447;-64
2023/04/01 11:56:49;;;;;;;1.58;1.00;;;;;;;;;;5033274;28;20041;-64
2023/04/01 11:59:35;;;;;;;1.10;1.00;;;16.90;90.80;;;;;;5016778;28;20064;-64
2023/04/01 12:02:19;;;;;;;3.33;1.17;;;17.00;90.80;;;;;;5033031;28;20041;-63
2023/04/01 12:04:48;;;;;;;7.38;1.35;;;17.00;92.70;;;;;;5033030;28;20041;-64
2023/04/01 12:08:06;;;;;;;3.10;1.35;;;17.10;91.50;;;;;;5016591;28;20100;-64
2023/04/01 12:11:01;;;;;;;1.25;0.85;;;17.10;91.40;;;;;;4990003;28;20082;-63
2023/04/01 12:13:35;;;;;;;2.55;1.52;;;16.80;90.60;;;;;;4968148;28;20585;-65
2023/04/01 12:16:26;;;;;;;2.70;1.10;;;16.70;91.20;;;;;;4993544;28;20504;-65
2023/04/01 12:19:09;;;;;;;1.75;1.05;;;16.90;92.50;;;;;;5007143;28;20500;-61
2023/04/01 12:21:36;;;;;;;1.55;0.90;;;;;;;;;;5007525;28;20042;-63
2023/04/01 12:24:07;;;;;;;1.38;1.00;;;16.90;90.50;;;;;;4993307;28;20092;-63
2023/04/01 12:26:42;;;;;;;2.78;1.15;;;16.90;91.20;;;;;;4993198;28;20408;-65
2023/04/01 12:29:14;;;;;;;1.75;1.00;;;;;;;;;;4996681;28;20038;-65
2023/04/01 12:32:16;;;;;;;1.63;1.10;;;16.90;90.60;;;;;;4976938;28;20538;-64
2023/04/01 12:35:13;;;;;;;2.08;1.10;;;16.80;90.60;;;;;;4993179;28;20297;-61
2023/04/01 12:37:50;;;;;;;2.10;1.08;;;17.20;90.60;;;;;;4993070;28;20496;-65
2023/04/01 12:40:28;;;;;;;2.80;1.40;;;16.80;90.30;;;;;;4992434;28;20161;-65
2023/04/01 12:43:08;;;;;;;2.20;1.20;;;16.80;92.40;;;;;;4992925;28;20049;-61
2023/04/01 12:45:55;;;;;;;1.75;0.80;;;16.60;91.10;;;;;;5022012;28;20098;-60
2023/04/01 12:48:59;;;;;;;2.95;1.10;;;16.80;90.50;;;;;;5057928;28;20102;-62
2023/04/01 12:51:40;;;;;;;1.75;1.02;;;16.70;90.30;;;;;;5065913;28;20473;-64
2023/04/01 12:54:44;;;;;;;1.30;0.88;;;16.80;90.50;;;;;;5073222;28;20040;-64
2023/04/01 12:57:41;;;;;;;2.33;1.10;;;16.70;90.50;;;;;;5074158;28;20048;-64
2023/04/01 13:00:31;;;;;;;1.48;0.90;;;16.80;90.30;;;;;;5074465;28;20390;-66
2023/04/01 13:03:18;;;;;;;1.95;1.08;;;16.60;90.50;;;;;;5072154;28;20059;-65
2023/04/01 13:05:44;;;;;;;2.13;1.00;;;;;;;;;;5074003;28;20537;-63
2023/04/01 13:08:13;;;;;;;1.88;1.00;;;16.60;92.40;;;;;;5073963;28;20037;-65
2023/04/01 13:11:00;;;;;;;2.53;1.10;;;16.60;90.60;;;;;;5073823;28;20052;-61
2023/04/01 13:14:13;;;;;;;1.13;0.80;;;16.60;90.50;;;;;;5072523;28;20044;-62
2023/04/01 13:16:42;;;;;;;1.92;0.95;;;16.70;92.40;;;;;;5068812;28;20052;-63
2023/04/01 13:19:26;;;;;;;2.20;0.90;;;16.50;90.50;;;;;;5063952;28;20097;-65
2023/04/01 13:22:05;;;;;;;1.67;0.98;;;16.40;90.60;;;;;;5052880;28;20379;-62
2023/04/01 13:24:56;;;;;;;0.93;0.82;;;16.40;90.40;;;;;;5053691;28;20094;-65
2023/04/01 13:27:40;;;;;;;1.40;0.82;;;16.60;91.30;;;;;;5052669;28;20053;-65
2023/04/01 13:30:33;;;;;;;2.05;0.98;;;16.50;90.60;;;;;;5052321;28;20513;-65
2023/04/01 13:33:17;;;;;;;1.88;1.02;;;16.60;90.50;;;;;;5052528;28;20049;-65
2023/04/01 13:35:51;;;;;;;1.45;0.73;;;16.30;92.30;;;;;;5052746;28;20057;-65
2023/04/01 13:38:17;;;;;;;1.48;1.00;;;;;;;;;;5052155;28;20067;-62
2023/04/01 13:40:49;;;;;;;1.70;0.80;;;16.40;92.10;;;;;;5053500;28;20045;-61
2023/04/01 13:43:30;;;;;;;1.83;1.13;;;16.50;90.40;;;;;;5053572;28;20376;-66
2023/04/01 13:46:02;;;;;;;1.20;0.82;;;;;;;;;;5067195;28;20048;-65
2023/04/01 13:48:50;;;;;;;3.17;1.00;;;16.30;90.50;;;;;;5071802;28;20058;-60
2023/04/01 13:51:35;;;;;;;1.70;1.10;;;16.30;90.40;;;;;;5073376;28;20045;-62
2023/04/01 13:54:23;;;;;;;1.30;0.80;;;;;;;;;;5071764;28;20051;-60